sensor_id;sensor_type;location;lat;lon;timestamp;pressure;altitude;pressure_sealevel;temperature;humidity
40205;BME280;26963;42.666;23.366;2023-03-23T00:01:06;94906.88;;;8.72;70.23
40205;BME280;26963;42.666;23.366;2023-03-23T00:03:32;94891.31;;;8.55;67.16
40205;BME280;26963;42.666;23.366;2023-03-23T00:05:59;94813.44;;;7.89;67.35
40205;BME280;26963;42.666;23.366;2023-03-23T00:08:32;94851.06;;;8.12;69.20
40205;BME280;26963;42.666;23.366;2023-03-23T00:10:58;94885.53;;;8.38;70.04
40205;BME280;26963;42.666;23.366;2023-03-23T00:13:27;94789.25;;;7.80;70.84
40205;BME280;26963;42.666;23.366;2023-03-23T00:15:53;94784.69;;;7.81;71.73
40205;BME280;26963;42.666;23.366;2023-03-23T00:18:20;94904.69;;;8.50;69.29
40205;BME280;26963;42.666;23.366;2023-03-23T00:20:47;94820.28;;;8.00;67.69
40205;BME280;26963;42.666;23.366;2023-03-23T00:23:18;94926.47;;;8.57;69.37
40205;BME280;26963;42.666;23.366;2023-03-23T00:25:48;94865.41;;;8.21;70.77
40205;BME280;26963;42.666;23.366;2023-03-23T00:28:15;94862.22;;;8.19;71.13
40205;BME280;26963;42.666;23.366;2023-03-23T00:30:41;94856.41;;;8.12;72.01
40205;BME280;26963;42.666;23.366;2023-03-23T00:33:08;94940.94;;;8.46;69.32
40205;BME280;26963;42.666;23.366;2023-03-23T00:35:33;94930.91;;;8.32;68.86
40205;BME280;26963;42.666;23.366;2023-03-23T00:38:01;94936.53;;;8.26;69.36
40205;BME280;26963;42.666;23.366;2023-03-23T00:40:27;94931.75;;;8.23;71.30
40205;BME280;26963;42.666;23.366;2023-03-23T00:42:53;94943.66;;;8.36;71.29
40205;BME280;26963;42.666;23.366;2023-03-23T00:45:18;94952.69;;;8.40;71.00
40205;BME280;26963;42.666;23.366;2023-03-23T00:47:44;94937.84;;;8.33;71.49
40205;BME280;26963;42.666;23.366;2023-03-23T00:50:12;94944.16;;;8.48;71.05
40205;BME280;26963;42.666;23.366;2023-03-23T00:52:40;94948.84;;;8.61;70.53
40205;BME280;26963;42.666;23.366;2023-03-23T00:55:06;94931.81;;;8.57;70.07
40205;BME280;26963;42.666;23.366;2023-03-23T00:57:32;94880.78;;;8.29;69.82
40205;BME280;26963;42.666;23.366;2023-03-23T00:59:57;94959.91;;;8.79;69.32
40205;BME280;26963;42.666;23.366;2023-03-23T01:02:23;94950.28;;;8.83;68.38
40205;BME280;26963;42.666;23.366;2023-03-23T01:04:50;94882.84;;;8.43;68.64
40205;BME280;26963;42.666;23.366;2023-03-23T01:07:20;94956.53;;;8.97;69.09
40205;BME280;26963;42.666;23.366;2023-03-23T01:09:46;94933.69;;;8.86;67.78
40205;BME280;26963;42.666;23.366;2023-03-23T01:12:13;94942.22;;;8.88;68.00
40205;BME280;26963;42.666;23.366;2023-03-23T01:14:40;94954.94;;;8.96;67.96
40205;BME280;26963;42.666;23.366;2023-03-23T01:17:06;94870.03;;;8.45;67.72
40205;BME280;26963;42.666;23.366;2023-03-23T01:19:31;94949.56;;;9.02;67.39
40205;BME280;26963;42.666;23.366;2023-03-23T01:21:57;94947.72;;;9.02;67.75
40205;BME280;26963;42.666;23.366;2023-03-23T01:24:22;94938.84;;;9.07;68.12
40205;BME280;26963;42.666;23.366;2023-03-23T01:26:48;94936.63;;;9.14;67.51
40205;BME280;26963;42.666;23.366;2023-03-23T01:29:13;94917.28;;;8.98;67.33
40205;BME280;26963;42.666;23.366;2023-03-23T01:31:39;94944.66;;;9.14;67.15
40205;BME280;26963;42.666;23.366;2023-03-23T01:34:05;94937.94;;;9.17;67.05
40205;BME280;26963;42.666;23.366;2023-03-23T01:36:31;94924.41;;;9.08;66.64
40205;BME280;26963;42.666;23.366;2023-03-23T01:38:59;94844.88;;;8.56;66.70
40205;BME280;26963;42.666;23.366;2023-03-23T01:41:24;94919.66;;;9.05;66.80
40205;BME280;26963;42.666;23.366;2023-03-23T01:46:43;94904.53;;;8.95;66.59
40205;BME280;26963;42.666;23.366;2023-03-23T01:49:15;94903.19;;;8.97;66.76
40205;BME280;26963;42.666;23.366;2023-03-23T01:51:46;94911.19;;;8.97;66.90
40205;BME280;26963;42.666;23.366;2023-03-23T01:54:15;94922.38;;;9.00;66.67
40205;BME280;26963;42.666;23.366;2023-03-23T01:56:54;94895.78;;;8.89;66.97
40205;BME280;26963;42.666;23.366;2023-03-23T01:59:23;94879.66;;;8.75;66.78
40205;BME280;26963;42.666;23.366;2023-03-23T02:01:51;94911.69;;;9.00;67.35
40205;BME280;26963;42.666;23.366;2023-03-23T02:04:18;94920.19;;;9.02;67.33
40205;BME280;26963;42.666;23.366;2023-03-23T02:06:44;94895.81;;;8.84;67.25
40205;BME280;26963;42.666;23.366;2023-03-23T02:09:12;94925.53;;;9.02;67.62
40205;BME280;26963;42.666;23.366;2023-03-23T02:11:45;94904.28;;;8.91;67.59
40205;BME280;26963;42.666;23.366;2023-03-23T02:14:11;94921.84;;;8.97;67.69
40205;BME280;26963;42.666;23.366;2023-03-23T02:19:21;94917.59;;;8.96;67.28
40205;BME280;26963;42.666;23.366;2023-03-23T02:30:17;94860.47;;;8.39;68.00
40205;BME280;26963;42.666;23.366;2023-03-23T02:35:47;94926.31;;;8.78;67.37
40205;BME280;26963;42.666;23.366;2023-03-23T02:38:23;94906.19;;;8.61;67.54
40205;BME280;26963;42.666;23.366;2023-03-23T02:40:54;94835.59;;;8.14;67.53
40205;BME280;26963;42.666;23.366;2023-03-23T02:43:24;94919.00;;;8.59;66.93
40205;BME280;26963;42.666;23.366;2023-03-23T02:45:52;94931.81;;;8.57;66.85
40205;BME280;26963;42.666;23.366;2023-03-23T02:48:22;94929.19;;;8.52;67.53
40205;BME280;26963;42.666;23.366;2023-03-23T02:50:51;94850.31;;;7.66;67.52
40205;BME280;26963;42.666;23.366;2023-03-23T02:53:21;94939.97;;;7.87;68.50
40205;BME280;26963;42.666;23.366;2023-03-23T02:55:48;94930.25;;;7.51;69.62
40205;BME280;26963;42.666;23.366;2023-03-23T02:58:14;94874.84;;;6.88;70.79
40205;BME280;26963;42.666;23.366;2023-03-23T03:00:40;94944.78;;;7.04;71.35
40205;BME280;26963;42.666;23.366;2023-03-23T03:03:13;94925.13;;;6.74;72.80
40205;BME280;26963;42.666;23.366;2023-03-23T03:06:08;94954.38;;;6.79;73.51
40205;BME280;26963;42.666;23.366;2023-03-23T03:08:52;94949.59;;;6.65;74.38
40205;BME280;26963;42.666;23.366;2023-03-23T03:11:21;94912.13;;;6.41;74.00
40205;BME280;26963;42.666;23.366;2023-03-23T03:14:03;94946.41;;;6.63;73.07
40205;BME280;26963;42.666;23.366;2023-03-23T03:17:10;94967.66;;;6.84;73.58
40205;BME280;26963;42.666;23.366;2023-03-23T03:19:42;94975.63;;;6.99;73.41
40205;BME280;26963;42.666;23.366;2023-03-23T03:22:11;94957.03;;;6.94;72.94
40205;BME280;26963;42.666;23.366;2023-03-23T03:24:40;94976.16;;;7.17;72.94
40205;BME280;26963;42.666;23.366;2023-03-23T03:27:13;94965.50;;;7.22;72.46
40205;BME280;26963;42.666;23.366;2023-03-23T03:29:45;94986.72;;;7.48;71.70
40205;BME280;26963;42.666;23.366;2023-03-23T03:32:15;94972.84;;;7.56;71.50
40205;BME280;26963;42.666;23.366;2023-03-23T03:34:44;94978.09;;;7.77;70.42
40205;BME280;26963;42.666;23.366;2023-03-23T03:37:10;94942.44;;;7.67;69.65
40205;BME280;26963;42.666;23.366;2023-03-23T03:39:37;94921.75;;;7.54;70.02
40205;BME280;26963;42.666;23.366;2023-03-23T03:42:04;94977.22;;;7.97;69.41
40205;BME280;26963;42.666;23.366;2023-03-23T03:44:30;94965.19;;;8.05;69.20
40205;BME280;26963;42.666;23.366;2023-03-23T03:46:56;94965.19;;;8.05;68.89
40205;BME280;26963;42.666;23.366;2023-03-23T03:49:21;94967.28;;;8.08;68.82
40205;BME280;26963;42.666;23.366;2023-03-23T03:51:48;94972.09;;;8.11;69.09
40205;BME280;26963;42.666;23.366;2023-03-23T03:54:14;94970.75;;;8.13;68.67
40205;BME280;26963;42.666;23.366;2023-03-23T03:56:40;94967.28;;;8.08;68.33
40205;BME280;26963;42.666;23.366;2023-03-23T03:59:07;94971.78;;;8.18;68.26
40205;BME280;26963;42.666;23.366;2023-03-23T04:01:34;94904.63;;;7.71;67.62
40205;BME280;26963;42.666;23.366;2023-03-23T04:03:59;94950.75;;;8.11;68.16
40205;BME280;26963;42.666;23.366;2023-03-23T04:06:25;94968.50;;;8.31;67.87
40205;BME280;26963;42.666;23.366;2023-03-23T04:08:56;94970.38;;;8.25;66.96
40205;BME280;26963;42.666;23.366;2023-03-23T04:11:24;94932.38;;;8.09;67.20
40205;BME280;26963;42.666;23.366;2023-03-23T04:13:50;94948.84;;;8.16;67.08
40205;BME280;26963;42.666;23.366;2023-03-23T04:16:16;94942.50;;;8.12;67.23
40205;BME280;26963;42.666;23.366;2023-03-23T04:18:42;94895.78;;;7.80;67.13
40205;BME280;26963;42.666;23.366;2023-03-23T04:21:08;94964.00;;;8.26;67.00
40205;BME280;26963;42.666;23.366;2023-03-23T04:23:35;94952.84;;;8.19;66.85
40205;BME280;26963;42.666;23.366;2023-03-23T04:26:02;94946.16;;;8.22;66.85
40205;BME280;26963;42.666;23.366;2023-03-23T04:28:29;94909.50;;;7.98;66.64
40205;BME280;26963;42.666;23.366;2023-03-23T04:30:59;94901.84;;;7.91;66.97
40205;BME280;26963;42.666;23.366;2023-03-23T04:33:27;94953.88;;;8.28;66.74
40205;BME280;26963;42.666;23.366;2023-03-23T04:35:56;94952.22;;;8.32;66.68
40205;BME280;26963;42.666;23.366;2023-03-23T04:38:23;94904.44;;;8.02;66.58
40205;BME280;26963;42.666;23.366;2023-03-23T04:40:52;94947.94;;;8.37;66.82
40205;BME280;26963;42.666;23.366;2023-03-23T04:43:18;94946.81;;;8.43;66.03
40205;BME280;26963;42.666;23.366;2023-03-23T04:45:56;94952.16;;;8.43;66.97
40205;BME280;26963;42.666;23.366;2023-03-23T04:48:25;94974.72;;;8.61;66.87
40205;BME280;26963;42.666;23.366;2023-03-23T04:50:51;94958.53;;;8.47;66.48
40205;BME280;26963;42.666;23.366;2023-03-23T04:53:17;94973.44;;;8.53;66.52
40205;BME280;26963;42.666;23.366;2023-03-23T04:55:43;94982.44;;;8.62;66.27
40205;BME280;26963;42.666;23.366;2023-03-23T04:58:09;94987.22;;;8.65;66.32
40205;BME280;26963;42.666;23.366;2023-03-23T05:00:38;94972.34;;;8.59;66.13
40205;BME280;26963;42.666;23.366;2023-03-23T05:03:03;94984.56;;;8.65;65.81
40205;BME280;26963;42.666;23.366;2023-03-23T05:05:29;94993.56;;;8.75;65.14
40205;BME280;26963;42.666;23.366;2023-03-23T05:07:55;94980.78;;;8.72;66.03
40205;BME280;26963;42.666;23.366;2023-03-23T05:10:22;94985.78;;;8.78;65.55
40205;BME280;26963;42.666;23.366;2023-03-23T05:12:48;94922.88;;;8.38;65.57
40205;BME280;26963;42.666;23.366;2023-03-23T05:15:15;94985.53;;;8.75;65.96
40205;BME280;26963;42.666;23.366;2023-03-23T05:17:41;94985.25;;;8.76;66.46
40205;BME280;26963;42.666;23.366;2023-03-23T05:20:10;94985.78;;;8.78;66.18
40205;BME280;26963;42.666;23.366;2023-03-23T05:22:37;94966.34;;;8.78;66.14
40205;BME280;26963;42.666;23.366;2023-03-23T05:25:07;94998.97;;;8.99;65.89
40205;BME280;26963;42.666;23.366;2023-03-23T05:27:37;95012.94;;;8.86;66.11
40205;BME280;26963;42.666;23.366;2023-03-23T05:30:04;94992.09;;;8.53;66.49
40205;BME280;26963;42.666;23.366;2023-03-23T05:32:31;94934.53;;;8.07;67.65
40205;BME280;26963;42.666;23.366;2023-03-23T05:34:58;94998.53;;;8.47;67.80
40205;BME280;26963;42.666;23.366;2023-03-23T05:37:25;94933.78;;;7.96;67.37
40205;BME280;26963;42.666;23.366;2023-03-23T05:39:52;95018.25;;;8.51;67.93
40205;BME280;26963;42.666;23.366;2023-03-23T05:42:22;95013.44;;;8.53;68.00
40205;BME280;26963;42.666;23.366;2023-03-23T05:44:49;94990.00;;;8.50;67.31
40205;BME280;26963;42.666;23.366;2023-03-23T05:47:15;95029.34;;;8.69;67.44
40205;BME280;26963;42.666;23.366;2023-03-23T05:49:41;95004.88;;;8.61;67.52
40205;BME280;26963;42.666;23.366;2023-03-23T05:52:07;94942.63;;;8.31;66.98
40205;BME280;26963;42.666;23.366;2023-03-23T05:54:32;95030.16;;;9.04;67.08
40205;BME280;26963;42.666;23.366;2023-03-23T05:56:59;95026.31;;;9.15;66.92
40205;BME280;26963;42.666;23.366;2023-03-23T05:59:25;95017.88;;;9.32;66.68
40205;BME280;26963;42.666;23.366;2023-03-23T06:01:52;94951.09;;;9.08;65.91
40205;BME280;26963;42.666;23.366;2023-03-23T06:04:19;95017.75;;;9.72;65.40
40205;BME280;26963;42.666;23.366;2023-03-23T06:06:44;95028.03;;;10.08;64.58
40205;BME280;26963;42.666;23.366;2023-03-23T06:09:11;95009.19;;;10.18;63.70
40205;BME280;26963;42.666;23.366;2023-03-23T06:11:37;95021.25;;;10.35;63.07
40205;BME280;26963;42.666;23.366;2023-03-23T06:14:02;94993.91;;;10.43;63.02
40205;BME280;26963;42.666;23.366;2023-03-23T06:16:28;95023.41;;;10.76;61.91
40205;BME280;26963;42.666;23.366;2023-03-23T06:18:54;95010.16;;;10.85;61.03
40205;BME280;26963;42.666;23.366;2023-03-23T06:21:22;94979.22;;;10.79;59.82
40205;BME280;26963;42.666;23.366;2023-03-23T06:23:48;95014.63;;;11.08;60.06
40205;BME280;26963;42.666;23.366;2023-03-23T06:26:15;94978.66;;;10.96;59.92
40205;BME280;26963;42.666;23.366;2023-03-23T06:28:43;95031.44;;;11.42;59.10
40205;BME280;26963;42.666;23.366;2023-03-23T06:31:08;95032.09;;;11.53;58.86
40205;BME280;26963;42.666;23.366;2023-03-23T06:33:36;95026.41;;;11.54;58.51
40205;BME280;26963;42.666;23.366;2023-03-23T06:36:03;95008.94;;;11.43;58.38
40205;BME280;26963;42.666;23.366;2023-03-23T06:38:30;94955.28;;;11.01;59.19
40205;BME280;26963;42.666;23.366;2023-03-23T06:40:56;94960.22;;;10.94;59.24
40205;BME280;26963;42.666;23.366;2023-03-23T06:43:23;94980.06;;;11.07;59.08
40205;BME280;26963;42.666;23.366;2023-03-23T06:45:50;95041.38;;;12.16;57.49
40205;BME280;26963;42.666;23.366;2023-03-23T06:48:16;95037.34;;;14.00;53.29
40205;BME280;26963;42.666;23.366;2023-03-23T06:50:43;95042.94;;;15.79;48.83
40205;BME280;26963;42.666;23.366;2023-03-23T06:53:10;95039.72;;;17.27;45.26
40205;BME280;26963;42.666;23.366;2023-03-23T06:55:36;95027.66;;;18.16;40.55
40205;BME280;26963;42.666;23.366;2023-03-23T06:58:04;95029.88;;;18.76;39.38
40205;BME280;26963;42.666;23.366;2023-03-23T07:00:31;95032.63;;;20.06;38.19
40205;BME280;26963;42.666;23.366;2023-03-23T07:02:57;95030.91;;;21.00;36.10
40205;BME280;26963;42.666;23.366;2023-03-23T07:05:23;95013.97;;;21.70;34.24
40205;BME280;26963;42.666;23.366;2023-03-23T07:07:49;95036.09;;;22.61;32.53
40205;BME280;26963;42.666;23.366;2023-03-23T07:10:15;94944.06;;;22.54;31.21
40205;BME280;26963;42.666;23.366;2023-03-23T07:12:40;95042.13;;;23.69;30.37
40205;BME280;26963;42.666;23.366;2023-03-23T07:15:07;95004.34;;;24.12;29.82
40205;BME280;26963;42.666;23.366;2023-03-23T07:17:35;95035.47;;;25.04;29.82
40205;BME280;26963;42.666;23.366;2023-03-23T07:20:01;95022.00;;;25.66;27.22
40205;BME280;26963;42.666;23.366;2023-03-23T07:22:27;95020.16;;;26.28;26.41
40205;BME280;26963;42.666;23.366;2023-03-23T07:24:53;95006.78;;;26.62;25.77
40205;BME280;26963;42.666;23.366;2023-03-23T07:27:18;95037.25;;;27.26;25.75
40205;BME280;26963;42.666;23.366;2023-03-23T07:29:44;95005.75;;;27.56;25.05
40205;BME280;26963;42.666;23.366;2023-03-23T07:32:11;95036.50;;;28.07;24.25
40205;BME280;26963;42.666;23.366;2023-03-23T07:34:37;95017.56;;;27.49;24.21
40205;BME280;26963;42.666;23.366;2023-03-23T07:37:03;94978.28;;;27.52;24.67
40205;BME280;26963;42.666;23.366;2023-03-23T07:39:29;95025.91;;;27.98;23.99
40205;BME280;26963;42.666;23.366;2023-03-23T07:41:55;95022.59;;;28.25;24.37
40205;BME280;26963;42.666;23.366;2023-03-23T07:44:21;95030.09;;;28.73;23.35
40205;BME280;26963;42.666;23.366;2023-03-23T07:46:47;95026.13;;;29.16;22.32
40205;BME280;26963;42.666;23.366;2023-03-23T07:49:12;95022.78;;;29.32;21.78
40205;BME280;26963;42.666;23.366;2023-03-23T07:51:39;95027.53;;;29.63;22.04
40205;BME280;26963;42.666;23.366;2023-03-23T07:54:05;95027.84;;;29.99;21.28
40205;BME280;26963;42.666;23.366;2023-03-23T07:56:34;95033.94;;;30.14;21.35
40205;BME280;26963;42.666;23.366;2023-03-23T07:58:59;94989.22;;;29.99;21.09
40205;BME280;26963;42.666;23.366;2023-03-23T08:01:26;95035.31;;;30.26;20.80
40205;BME280;26963;42.666;23.366;2023-03-23T08:03:51;95041.31;;;30.48;20.51
40205;BME280;26963;42.666;23.366;2023-03-23T08:06:20;95003.44;;;30.49;20.42
40205;BME280;26963;42.666;23.366;2023-03-23T08:08:46;95034.47;;;30.80;20.21
40205;BME280;26963;42.666;23.366;2023-03-23T08:11:12;95037.16;;;30.84;19.64
40205;BME280;26963;42.666;23.366;2023-03-23T08:13:41;94978.97;;;30.51;20.17
40205;BME280;26963;42.666;23.366;2023-03-23T08:16:07;95032.56;;;30.97;20.10
40205;BME280;26963;42.666;23.366;2023-03-23T08:18:35;94994.56;;;31.05;20.17
40205;BME280;26963;42.666;23.366;2023-03-23T08:21:01;95052.91;;;31.51;19.56
40205;BME280;26963;42.666;23.366;2023-03-23T08:23:28;95048.06;;;31.55;18.85
40205;BME280;26963;42.666;23.366;2023-03-23T08:25:53;95026.59;;;31.63;19.16
40205;BME280;26963;42.666;23.366;2023-03-23T08:28:19;94973.50;;;30.91;18.53
40205;BME280;26963;42.666;23.366;2023-03-23T08:30:45;94983.63;;;30.54;18.83
40205;BME280;26963;42.666;23.366;2023-03-23T08:33:10;94996.72;;;30.50;19.21
40205;BME280;26963;42.666;23.366;2023-03-23T08:35:37;95017.22;;;30.72;18.71
40205;BME280;26963;42.666;23.366;2023-03-23T08:38:02;95041.66;;;30.74;19.17
40205;BME280;26963;42.666;23.366;2023-03-23T08:40:28;95032.19;;;30.51;19.51
40205;BME280;26963;42.666;23.366;2023-03-23T08:42:54;95005.38;;;30.24;19.67
40205;BME280;26963;42.666;23.366;2023-03-23T08:45:22;94931.72;;;29.43;19.61
40205;BME280;26963;42.666;23.366;2023-03-23T08:47:49;95040.25;;;29.53;19.81
40205;BME280;26963;42.666;23.366;2023-03-23T08:50:21;95040.47;;;28.51;19.89
40205;BME280;26963;42.666;23.366;2023-03-23T08:52:48;95027.00;;;27.52;21.15
40205;BME280;26963;42.666;23.366;2023-03-23T08:55:15;95037.78;;;26.74;21.05
40205;BME280;26963;42.666;23.366;2023-03-23T08:57:43;95033.00;;;25.80;21.65
40205;BME280;26963;42.666;23.366;2023-03-23T09:00:12;95024.38;;;24.86;23.46
40205;BME280;26963;42.666;23.366;2023-03-23T09:02:52;95030.13;;;23.77;25.68
40205;BME280;26963;42.666;23.366;2023-03-23T09:05:21;95033.78;;;22.90;24.81
40205;BME280;26963;42.666;23.366;2023-03-23T09:07:50;95044.53;;;22.52;26.66
40205;BME280;26963;42.666;23.366;2023-03-23T09:10:17;95042.84;;;22.44;26.69
40205;BME280;26963;42.666;23.366;2023-03-23T09:12:45;95039.88;;;22.29;26.27
40205;BME280;26963;42.666;23.366;2023-03-23T09:15:13;95046.59;;;22.36;25.92
40205;BME280;26963;42.666;23.366;2023-03-23T09:17:43;95018.16;;;22.10;25.71
40205;BME280;26963;42.666;23.366;2023-03-23T09:20:11;95035.25;;;22.07;25.87
40205;BME280;26963;42.666;23.366;2023-03-23T09:22:39;95037.63;;;21.65;26.62
40205;BME280;26963;42.666;23.366;2023-03-23T09:25:06;95041.50;;;21.64;27.78
40205;BME280;26963;42.666;23.366;2023-03-23T09:27:32;95050.63;;;21.76;28.29
40205;BME280;26963;42.666;23.366;2023-03-23T09:29:58;95032.75;;;21.35;27.61
40205;BME280;26963;42.666;23.366;2023-03-23T09:32:24;95047.06;;;20.93;28.89
40205;BME280;26963;42.666;23.366;2023-03-23T09:34:49;95032.31;;;20.27;30.08
40205;BME280;26963;42.666;23.366;2023-03-23T09:37:16;95021.53;;;19.66;30.68
40205;BME280;26963;42.666;23.366;2023-03-23T09:39:42;95024.59;;;19.36;30.70
40205;BME280;26963;42.666;23.366;2023-03-23T09:42:17;94945.81;;;18.35;31.86
40205;BME280;26963;42.666;23.366;2023-03-23T09:47:30;95030.13;;;18.34;31.99
40205;BME280;26963;42.666;23.366;2023-03-23T09:50:17;95023.47;;;18.44;32.32
40205;BME280;26963;42.666;23.366;2023-03-23T09:53:00;95031.56;;;18.68;32.29
40205;BME280;26963;42.666;23.366;2023-03-23T09:55:28;95011.22;;;18.74;31.44
40205;BME280;26963;42.666;23.366;2023-03-23T10:00:31;95026.75;;;19.02;31.55
40205;BME280;26963;42.666;23.366;2023-03-23T10:03:17;95029.56;;;19.06;32.11
40205;BME280;26963;42.666;23.366;2023-03-23T10:05:46;95013.13;;;18.99;31.59
40205;BME280;26963;42.666;23.366;2023-03-23T10:08:18;95012.38;;;18.73;32.48
40205;BME280;26963;42.666;23.366;2023-03-23T10:16:08;94962.34;;;18.18;32.48
40205;BME280;26963;42.666;23.366;2023-03-23T10:18:41;94945.53;;;18.00;32.34
40205;BME280;26963;42.666;23.366;2023-03-23T10:21:16;94899.03;;;17.60;32.21
40205;BME280;26963;42.666;23.366;2023-03-23T10:24:02;95013.56;;;18.23;32.24
40205;BME280;26963;42.666;23.366;2023-03-23T10:29:17;94906.38;;;17.72;32.57
40205;BME280;26963;42.666;23.366;2023-03-23T10:31:51;95008.78;;;18.57;32.36
40205;BME280;26963;42.666;23.366;2023-03-23T10:34:50;95012.31;;;18.86;31.91
40205;BME280;26963;42.666;23.366;2023-03-23T10:37:22;94999.34;;;18.92;31.63
40205;BME280;26963;42.666;23.366;2023-03-23T10:39:55;95005.72;;;18.71;31.76
40205;BME280;26963;42.666;23.366;2023-03-23T10:42:26;95014.88;;;18.54;31.93
40205;BME280;26963;42.666;23.366;2023-03-23T10:44:53;95000.00;;;18.35;32.23
40205;BME280;26963;42.666;23.366;2023-03-23T10:47:20;95004.97;;;17.96;33.39
40205;BME280;26963;42.666;23.366;2023-03-23T10:49:58;94985.59;;;17.60;34.04
40205;BME280;26963;42.666;23.366;2023-03-23T10:52:40;94986.75;;;17.59;34.33
40205;BME280;26963;42.666;23.366;2023-03-23T10:55:18;95003.00;;;17.72;34.16
40205;BME280;26963;42.666;23.366;2023-03-23T10:57:57;94963.63;;;17.50;33.90
40205;BME280;26963;42.666;23.366;2023-03-23T11:00:25;94997.50;;;17.93;33.71
40205;BME280;26963;42.666;23.366;2023-03-23T11:03:05;94977.63;;;17.64;34.04
40205;BME280;26963;42.666;23.366;2023-03-23T11:05:37;94999.50;;;17.71;33.96
40205;BME280;26963;42.666;23.366;2023-03-23T11:08:15;94925.94;;;17.32;34.01
40205;BME280;26963;42.666;23.366;2023-03-23T11:13:14;94973.72;;;17.40;33.82
40205;BME280;26963;42.666;23.366;2023-03-23T11:15:42;94926.16;;;17.27;34.01
40205;BME280;26963;42.666;23.366;2023-03-23T11:18:19;94962.25;;;17.43;33.88
40205;BME280;26963;42.666;23.366;2023-03-23T11:20:49;94932.91;;;17.21;34.09
40205;BME280;26963;42.666;23.366;2023-03-23T11:23:24;94914.75;;;17.21;34.11
40205;BME280;26963;42.666;23.366;2023-03-23T11:28:20;94966.81;;;17.89;34.27
40205;BME280;26963;42.666;23.366;2023-03-23T11:30:46;94938.88;;;17.85;33.54
40205;BME280;26963;42.666;23.366;2023-03-23T11:33:12;94949.34;;;17.99;33.26
40205;BME280;26963;42.666;23.366;2023-03-23T11:35:43;94964.47;;;18.12;33.19
40205;BME280;26963;42.666;23.366;2023-03-23T11:38:18;94915.31;;;17.98;33.23
40205;BME280;26963;42.666;23.366;2023-03-23T11:40:50;94950.94;;;18.24;32.92
40205;BME280;26963;42.666;23.366;2023-03-23T11:43:21;94939.41;;;18.28;32.87
40205;BME280;26963;42.666;23.366;2023-03-23T11:54:04;94947.69;;;17.94;32.99
40205;BME280;26963;42.666;23.366;2023-03-23T11:56:39;94949.25;;;17.95;33.46
40205;BME280;26963;42.666;23.366;2023-03-23T11:59:11;94957.47;;;17.86;33.18
40205;BME280;26963;42.666;23.366;2023-03-23T12:12:54;94914.34;;;17.44;34.08
40205;BME280;26963;42.666;23.366;2023-03-23T12:18:17;94894.88;;;17.51;34.41
40205;BME280;26963;42.666;23.366;2023-03-23T12:29:11;94908.19;;;18.18;33.67
40205;BME280;26963;42.666;23.366;2023-03-23T12:43:02;94924.25;;;18.39;32.71
40205;BME280;26963;42.666;23.366;2023-03-23T12:46:13;94922.50;;;18.06;33.34
40205;BME280;26963;42.666;23.366;2023-03-23T12:48:57;94884.28;;;17.70;33.76
40205;BME280;26963;42.666;23.366;2023-03-23T12:57:23;94903.09;;;17.67;34.37
40205;BME280;26963;42.666;23.366;2023-03-23T13:03:02;94912.78;;;17.31;34.74
40205;BME280;26963;42.666;23.366;2023-03-23T13:05:39;94908.34;;;17.26;34.75
40205;BME280;26963;42.666;23.366;2023-03-23T13:08:13;94895.50;;;17.10;35.07
40205;BME280;26963;42.666;23.366;2023-03-23T13:10:51;94892.81;;;16.89;35.44
40205;BME280;26963;42.666;23.366;2023-03-23T13:13:21;94891.06;;;16.72;36.38
40205;BME280;26963;42.666;23.366;2023-03-23T13:16:08;94826.06;;;16.23;36.08
40205;BME280;26963;42.666;23.366;2023-03-23T13:21:44;94892.66;;;16.73;36.51
40205;BME280;26963;42.666;23.366;2023-03-23T13:24:21;94881.81;;;16.61;36.33
40205;BME280;26963;42.666;23.366;2023-03-23T13:26:49;94871.22;;;16.56;36.52
40205;BME280;26963;42.666;23.366;2023-03-23T13:29:20;94898.72;;;16.70;36.81
40205;BME280;26963;42.666;23.366;2023-03-23T13:31:50;94886.13;;;16.74;36.72
40205;BME280;26963;42.666;23.366;2023-03-23T13:34:19;94890.66;;;16.83;36.50
40205;BME280;26963;42.666;23.366;2023-03-23T13:36:58;94809.47;;;16.33;36.53
40205;BME280;26963;42.666;23.366;2023-03-23T13:39:29;94897.19;;;16.82;36.03
40205;BME280;26963;42.666;23.366;2023-03-23T13:49:59;94855.00;;;16.56;36.67
40205;BME280;26963;42.666;23.366;2023-03-23T13:52:59;94882.50;;;16.70;37.00
40205;BME280;26963;42.666;23.366;2023-03-23T13:57:58;94870.66;;;16.62;36.95
40205;BME280;26963;42.666;23.366;2023-03-23T14:00:47;94804.47;;;16.23;36.78
40205;BME280;26963;42.666;23.366;2023-03-23T14:03:25;94879.09;;;16.61;36.93
40205;BME280;26963;42.666;23.366;2023-03-23T14:08:36;94846.97;;;16.47;36.69
40205;BME280;26963;42.666;23.366;2023-03-23T14:11:12;94865.00;;;16.55;36.99
40205;BME280;26963;42.666;23.366;2023-03-23T14:16:42;94865.53;;;16.70;36.90
40205;BME280;26963;42.666;23.366;2023-03-23T14:21:50;94831.75;;;16.42;37.27
40205;BME280;26963;42.666;23.366;2023-03-23T14:24:33;94853.88;;;16.57;37.07
40205;BME280;26963;42.666;23.366;2023-03-23T14:27:23;94831.69;;;16.30;37.54
40205;BME280;26963;42.666;23.366;2023-03-23T14:29:59;94857.03;;;16.38;37.34
40205;BME280;26963;42.666;23.366;2023-03-23T14:32:27;94857.59;;;16.31;37.24
40205;BME280;26963;42.666;23.366;2023-03-23T14:34:54;94855.69;;;16.32;37.26
40205;BME280;26963;42.666;23.366;2023-03-23T14:37:21;94843.44;;;16.34;37.27
40205;BME280;26963;42.666;23.366;2023-03-23T14:39:52;94849.06;;;16.41;37.69
40205;BME280;26963;42.666;23.366;2023-03-23T14:42:31;94850.59;;;16.30;37.85
40205;BME280;26963;42.666;23.366;2023-03-23T14:44:59;94844.75;;;16.28;37.88
40205;BME280;26963;42.666;23.366;2023-03-23T14:47:38;94834.94;;;16.23;37.95
40205;BME280;26963;42.666;23.366;2023-03-23T14:50:21;94869.19;;;16.32;37.84
40205;BME280;26963;42.666;23.366;2023-03-23T14:52:47;94834.38;;;16.18;37.62
40205;BME280;26963;42.666;23.366;2023-03-23T14:55:18;94854.50;;;16.20;37.99